Time;durP1;ratioP1;P1;durP2;ratioP2;P2;SDS_P1;SDS_P2;PMS_P1;PMS_P2;Temp;Humidity;BMP_temperature;BMP_pressure;BME280_temperature;BME280_humidity;BME280_pressure;Samples;Min_cycle;Max_cycle;Signal;HPM_P1;HPM_P2
2022/06/03 00:02:26;;;;;;;3.10;1.75;;;;;;;;;;7328143;19;162389;-16
2022/06/03 00:05:17;;;;;;;1.92;1.83;;;;;;;;;;7328328;19;154075;-16
2022/06/03 00:08:04;;;;;;;2.42;1.50;;;;;;;;;;7328327;19;153503;-17
2022/06/03 00:11:08;;;;;;;2.22;1.70;;;;;;;;;;7328238;19;161943;-16
2022/06/03 00:14:01;;;;;;;2.40;1.42;;;;;;;;;;7327371;19;162157;-16
2022/06/03 00:16:45;;;;;;;2.08;1.50;;;;;;;;;;7328721;19;154256;-16
2022/06/03 00:19:30;;;;;;;10.55;1.63;;;;;;;;;;7328524;19;153555;-16
2022/06/03 00:22:33;;;;;;;1.42;1.20;;;;;;;;;;7328098;19;161998;-16
2022/06/03 00:25:31;;;;;;;2.38;1.40;;;;;;;;;;7327210;19;162630;-16
2022/06/03 00:28:25;;;;;;;5.22;1.40;;;;;;;;;;7328425;19;153982;-15
2022/06/03 00:31:18;;;;;;;1.42;1.20;;;;;;;;;;7326643;19;153657;-17
2022/06/03 00:34:12;;;;;;;2.33;1.55;;;;;;;;;;7325604;19;161871;-15
2022/06/03 00:36:54;;;;;;;1.33;1.10;;;;;;;;;;7327718;19;162334;-16
2022/06/03 00:39:44;;;;;;;2.47;1.40;;;;;;;;;;7328000;19;153865;-15
2022/06/03 00:42:48;;;;;;;2.13;1.55;;;;;;;;;;7327639;19;153519;-15
2022/06/03 00:45:37;;;;;;;1.80;1.45;;;;;;;;;;7327350;19;161932;-18
2022/06/03 00:48:33;;;;;;;2.00;1.10;;;;;;;;;;7332925;19;162534;-16
2022/06/03 00:51:27;;;;;;;1.30;1.20;;;;;;;;;;7334623;19;154023;-16
2022/06/03 00:54:23;;;;;;;1.98;1.60;;;;;;;;;;7333980;19;153727;-15
2022/06/03 00:57:22;;;;;;;2.20;1.40;;;;;;;;;;7332584;19;161936;-15
2022/06/03 01:00:22;;;;;;;1.90;1.27;;;;;;;;;;7334117;19;162387;-18
2022/06/03 01:03:11;;;;;;;1.40;1.30;;;;;;;;;;7332321;19;154145;-17
2022/06/03 01:06:08;;;;;;;1.30;1.20;;;;;;;;;;7334236;19;153532;-15
2022/06/03 01:08:53;;;;;;;1.90;1.20;;;;;;;;;;7333502;19;162423;-16
2022/06/03 01:11:55;;;;;;;1.27;1.27;;;;;;;;;;7335600;19;162425;-15
2022/06/03 01:14:49;;;;;;;1.58;1.13;;;;;;;;;;7335340;19;154227;-16
2022/06/03 01:17:38;;;;;;;1.77;1.30;;;;;;;;;;7337090;19;153924;-18
2022/06/03 01:20:22;;;;;;;3.97;1.38;;;;;;;;;;7334840;19;133999;-18
2022/06/03 01:23:20;;;;;;;1.58;1.00;;;;;;;;;;7336505;19;162366;-17
2022/06/03 01:26:18;;;;;;;1.65;1.10;;;;;;;;;;7337200;19;154237;-18
2022/06/03 01:29:18;;;;;;;1.58;1.48;;;;;;;;;;7336598;19;153941;-17
2022/06/03 01:32:24;;;;;;;1.90;1.30;;;;;;;;;;7337014;19;161846;-18
2022/06/03 01:35:18;;;;;;;2.13;1.33;;;;;;;;;;7335012;19;162361;-18
2022/06/03 01:37:55;;;;;;;1.40;1.17;;;;;;;;;;7334067;19;154187;-17
2022/06/03 01:40:50;;;;;;;1.35;1.25;;;;;;;;;;7335783;19;153485;-18
2022/06/03 01:43:42;;;;;;;2.13;1.20;;;;;;;;;;7336560;19;161993;-17
2022/06/03 01:46:25;;;;;;;1.10;1.10;;;;;;;;;;7335907;19;162525;-17
2022/06/03 01:49:43;;;;;;;1.30;1.20;;;;;;;;;;7335993;19;154084;-18
2022/06/03 01:52:44;;;;;;;1.42;1.33;;;;;;;;;;7331684;19;153784;-17
2022/06/03 01:55:47;;;;;;;1.20;1.10;;;;;;;;;;7334422;19;162539;-17
2022/06/03 01:58:56;;;;;;;2.10;1.20;;;;;;;;;;7335259;19;162592;-18
2022/06/03 02:02:09;;;;;;;0.95;0.90;;;;;;;;;;7332814;19;154276;-18
2022/06/03 02:05:00;;;;;;;0.97;0.97;;;;;;;;;;7335411;19;153710;-18
2022/06/03 02:07:55;;;;;;;1.50;1.35;;;;;;;;;;7334145;19;161872;-18
2022/06/03 02:11:02;;;;;;;2.08;1.30;;;;;;;;;;7335707;19;162454;-18
2022/06/03 02:14:22;;;;;;;1.20;1.10;;;;;;;;;;7334133;19;154479;-18
2022/06/03 02:17:22;;;;;;;1.20;1.10;;;;;;;;;;7333782;19;154034;-18
2022/06/03 02:20:35;;;;;;;1.60;1.50;;;;;;;;;;7333749;19;161968;-18
2022/06/03 02:23:30;;;;;;;1.80;1.63;;;;;;;;;;7330395;19;162576;-17
2022/06/03 02:26:23;;;;;;;1.55;1.08;;;;;;;;;;7332178;19;154094;-17
2022/06/03 02:32:27;;;;;;;1.60;1.38;;;;;;;;;;7331141;19;162124;-17
2022/06/03 02:35:17;;;;;;;1.45;1.15;;;;;;;;;;7330908;19;162511;-15
2022/06/03 02:38:04;;;;;;;1.55;1.45;;;;;;;;;;7331857;19;154217;-14
2022/06/03 02:41:18;;;;;;;1.42;1.30;;;;;;;;;;7331710;19;153482;-16
2022/06/03 02:44:12;;;;;;;1.20;1.20;;;;;;;;;;7329830;19;162068;-15
2022/06/03 02:47:02;;;;;;;1.23;1.13;;;;;;;;;;7331343;19;162392;-15
2022/06/03 02:49:55;;;;;;;1.67;1.58;;;;;;;;;;7331181;19;154690;-17
2022/06/03 02:53:07;;;;;;;1.15;1.15;;;;;;;;;;7330112;19;153638;-17
2022/06/03 02:56:10;;;;;;;1.60;1.23;;;;;;;;;;7327771;19;162065;-14
2022/06/03 02:59:08;;;;;;;1.05;1.00;;;;;;;;;;7328893;19;162297;-16
2022/06/03 03:02:06;;;;;;;1.50;1.40;;;;;;;;;;7330980;19;154021;-15
2022/06/03 03:05:12;;;;;;;1.50;1.40;;;;;;;;;;7330671;19;153520;-15
2022/06/03 03:08:12;;;;;;;1.05;1.00;;;;;;;;;;7335129;19;161756;-18
2022/06/03 03:11:29;;;;;;;1.60;1.15;;;;;;;;;;7327754;19;162582;-14
2022/06/03 03:14:38;;;;;;;1.50;1.42;;;;;;;;;;7329014;19;154109;-16
2022/06/03 03:17:51;;;;;;;1.20;1.10;;;;;;;;;;7327630;19;153682;-18
2022/06/03 03:20:54;;;;;;;1.30;1.20;;;;;;;;;;7327920;19;162119;-16
2022/06/03 03:23:49;;;;;;;1.25;1.15;;;;;;;;;;7329840;19;162501;-16
2022/06/03 03:26:31;;;;;;;1.65;1.30;;;;;;;;;;7330589;19;154020;-15
2022/06/03 03:29:19;;;;;;;1.15;1.05;;;;;;;;;;7330356;19;153523;-16
2022/06/03 03:32:08;;;;;;;1.05;1.05;;;;;;;;;;7329033;19;162038;-15
2022/06/03 03:35:08;;;;;;;1.35;1.20;;;;;;;;;;7329555;19;162214;-18
2022/06/03 03:38:07;;;;;;;1.50;1.40;;;;;;;;;;7329661;19;154260;-16
2022/06/03 03:41:08;;;;;;;1.27;0.95;;;;;;;;;;7328749;19;153575;-16
2022/06/03 03:44:18;;;;;;;1.45;1.33;;;;;;;;;;7329649;19;162005;-16
2022/06/03 03:47:21;;;;;;;1.58;1.40;;;;;;;;;;7329578;19;162551;-16
2022/06/03 03:50:24;;;;;;;2.05;1.10;;;;;;;;;;7329807;19;154201;-16
2022/06/03 03:53:47;;;;;;;1.08;1.08;;;;;;;;;;7326667;19;153661;-16
2022/06/03 03:56:43;;;;;;;1.30;1.30;;;;;;;;;;7328842;19;161857;-16
2022/06/03 03:59:35;;;;;;;1.35;1.25;;;;;;;;;;7329052;19;162173;-17
2022/06/03 04:02:38;;;;;;;1.45;1.35;;;;;;;;;;7329267;19;153996;-15
2022/06/03 04:05:48;;;;;;;1.33;1.20;;;;;;;;;;7329067;19;153568;-15
2022/06/03 04:08:56;;;;;;;1.20;1.17;;;;;;;;;;7327359;19;162007;-16
2022/06/03 04:12:01;;;;;;;1.20;1.10;;;;;;;;;;7328709;19;162695;-16
2022/06/03 04:15:14;;;;;;;2.58;1.48;;;;;;;;;;7329085;19;153984;-16
2022/06/03 04:18:26;;;;;;;1.33;1.10;;;;;;;;;;7326427;19;153615;-16
2022/06/03 04:21:42;;;;;;;1.70;1.10;;;;;;;;;;7330063;19;162111;-16
2022/06/03 04:24:46;;;;;;;1.60;1.00;;;;;;;;;;7335130;19;162364;-17
2022/06/03 04:27:50;;;;;;;1.20;1.02;;;;;;;;;;7335268;19;153818;-16
2022/06/03 04:30:59;;;;;;;1.20;1.20;;;;;;;;;;7335549;19;153620;-16
2022/06/03 04:34:01;;;;;;;1.17;1.08;;;;;;;;;;7334806;19;161848;-16
2022/06/03 04:37:01;;;;;;;1.30;1.20;;;;;;;;;;7334171;19;162399;-17
2022/06/03 04:40:17;;;;;;;0.95;0.95;;;;;;;;;;7335645;19;154046;-16
2022/06/03 04:43:25;;;;;;;1.42;1.33;;;;;;;;;;7334096;19;153658;-16
2022/06/03 04:46:53;;;;;;;4.50;1.33;;;;;;;;;;7334481;19;161984;-16
2022/06/03 04:50:09;;;;;;;1.50;1.10;;;;;;;;;;7331258;19;162730;-17
2022/06/03 04:53:23;;;;;;;1.70;1.60;;;;;;;;;;7333154;19;154087;-16
2022/06/03 04:56:25;;;;;;;1.55;1.13;;;;;;;;;;7334648;19;153586;-16
2022/06/03 04:59:32;;;;;;;1.48;1.38;;;;;;;;;;7334161;19;161748;-17
2022/06/03 05:02:42;;;;;;;1.30;1.20;;;;;;;;;;7337111;19;162453;-17
2022/06/03 05:05:50;;;;;;;1.30;1.20;;;;;;;;;;7332455;19;154177;-16
2022/06/03 05:09:06;;;;;;;1.20;1.10;;;;;;;;;;7332869;19;153756;-19
2022/06/03 05:12:22;;;;;;;1.58;1.48;;;;;;;;;;7333735;19;162129;-16
2022/06/03 05:15:22;;;;;;;1.65;1.50;;;;;;;;;;7333728;19;162328;-16
2022/06/03 05:18:21;;;;;;;1.67;1.30;;;;;;;;;;7332695;19;154081;-17
2022/06/03 05:21:43;;;;;;;1.80;1.60;;;;;;;;;;7334217;19;153704;-16
2022/06/03 05:24:50;;;;;;;1.58;1.48;;;;;;;;;;7333368;19;161983;-16
2022/06/03 05:27:54;;;;;;;1.75;1.65;;;;;;;;;;7333299;19;163179;-17
2022/06/03 05:31:01;;;;;;;1.55;1.45;;;;;;;;;;7333847;19;154028;-16
2022/06/03 05:33:59;;;;;;;2.10;1.77;;;;;;;;;;7331324;19;153601;-17
2022/06/03 05:36:59;;;;;;;8.82;5.90;;;;;;;;;;7333141;19;161693;-16
2022/06/03 05:40:03;;;;;;;15.38;9.65;;;;;;;;;;7332680;19;162744;-17
2022/06/03 05:43:09;;;;;;;15.70;10.90;;;;;;;;;;7333693;19;154105;-16
2022/06/03 05:46:02;;;;;;;17.13;11.05;;;;;;;;;;7333201;19;153931;-16
2022/06/03 05:48:46;;;;;;;17.52;10.88;;;;;;;;;;7334533;19;161877;-17
2022/06/03 05:51:42;;;;;;;18.63;12.95;;;;;;;;;;7332886;19;162423;-16
2022/06/03 05:54:23;;;;;;;18.52;12.38;;;;;;;;;;7333438;19;154002;-16
2022/06/03 05:57:06;;;;;;;22.15;14.43;;;;;;;;;;7332570;19;153823;-16
2022/06/03 06:00:03;;;;;;;22.10;13.68;;;;;;;;;;7332876;19;161965;-17
2022/06/03 06:02:42;;;;;;;19.80;12.55;;;;;;;;;;7329467;19;162737;-17
2022/06/03 06:05:20;;;;;;;19.25;12.43;;;;;;;;;;7332563;19;154173;-17
2022/06/03 06:07:58;;;;;;;20.73;11.48;;;;;;;;;;7332704;19;153609;-17
2022/06/03 06:10:38;;;;;;;20.88;13.40;;;;;;;;;;7329678;19;161956;-17
2022/06/03 06:13:40;;;;;;;16.58;12.32;;;;;;;;;;7327658;19;162610;-17
2022/06/03 06:16:17;;;;;;;15.77;10.68;;;;;;;;;;7328987;19;154206;-17
2022/06/03 06:18:59;;;;;;;16.73;10.23;;;;;;;;;;7326802;19;153791;-17
2022/06/03 06:22:00;;;;;;;17.80;13.00;;;;;;;;;;7328504;19;161807;-16
2022/06/03 06:25:03;;;;;;;15.73;12.10;;;;;;;;;;7330289;19;162484;-17
2022/06/03 06:28:00;;;;;;;15.65;12.02;;;;;;;;;;7332326;19;154030;-17
2022/06/03 06:30:59;;;;;;;15.50;11.80;;;;;;;;;;7332022;19;153605;-17
2022/06/03 06:33:43;;;;;;;15.52;12.07;;;;;;;;;;7331860;19;161800;-17
2022/06/03 06:36:53;;;;;;;20.25;11.13;;;;;;;;;;7331309;19;162387;-16
2022/06/03 06:39:53;;;;;;;16.63;10.98;;;;;;;;;;7328905;19;154291;-17
2022/06/03 06:42:40;;;;;;;18.38;10.55;;;;;;;;;;7331708;19;153692;-18
2022/06/03 06:45:37;;;;;;;15.20;10.65;;;;;;;;;;7328511;19;161902;-16
2022/06/03 06:48:22;;;;;;;15.73;10.70;;;;;;;;;;7330931;19;162509;-16
2022/06/03 06:50:58;;;;;;;12.27;9.23;;;;;;;;;;7331676;19;154213;-17
2022/06/03 06:53:38;;;;;;;15.02;9.43;;;;;;;;;;7327678;19;153723;-16
2022/06/03 06:56:18;;;;;;;12.95;9.50;;;;;;;;;;7330670;19;161776;-16
2022/06/03 06:58:55;;;;;;;12.73;8.85;;;;;;;;;;7329335;19;162681;-17
2022/06/03 07:01:31;;;;;;;14.27;9.93;;;;;;;;;;7331436;19;154082;-17
2022/06/03 07:04:08;;;;;;;16.65;10.30;;;;;;;;;;7331548;19;153773;-17
2022/06/03 07:06:44;;;;;;;15.48;9.85;;;;;;;;;;7333656;19;162181;-16
2022/06/03 07:09:46;;;;;;;14.63;9.60;;;;;;;;;;7330586;19;162169;-17
2022/06/03 07:12:19;;;;;;;15.10;9.77;;;;;;;;;;7329313;19;154066;-17
2022/06/03 07:15:03;;;;;;;12.35;9.20;;;;;;;;;;7330782;19;153586;-17
2022/06/03 07:20:47;;;;;;;12.55;8.95;;;;;;;;;;7330205;19;162680;-17
2022/06/03 07:23:26;;;;;;;12.23;8.77;;;;;;;;;;7330329;19;153895;-17
2022/06/03 07:26:01;;;;;;;10.43;8.60;;;;;;;;;;7330605;19;153357;-17
2022/06/03 07:28:41;;;;;;;11.45;9.13;;;;;;;;;;7328777;19;161860;-17
2022/06/03 07:31:19;;;;;;;14.68;9.07;;;;;;;;;;7330133;19;162904;-17
2022/06/03 07:33:58;;;;;;;11.60;8.15;;;;;;;;;;7330288;19;154227;-16
2022/06/03 07:36:39;;;;;;;12.15;9.60;;;;;;;;;;7330222;19;153468;-16
2022/06/03 07:39:47;;;;;;;13.38;8.82;;;;;;;;;;7328051;19;161856;-16
2022/06/03 07:42:27;;;;;;;14.23;9.48;;;;;;;;;;7329463;19;162328;-15
2022/06/03 07:45:08;;;;;;;16.52;9.48;;;;;;;;;;7329950;19;153786;-16
2022/06/03 07:47:39;;;;;;;14.43;8.98;;;;;;;;;;7329634;19;153563;-16
2022/06/03 07:50:18;;;;;;;13.75;9.25;;;;;;;;;;7329201;19;161875;-16
2022/06/03 07:53:01;;;;;;;10.48;8.07;;;;;;;;;;7330248;19;162522;-16
2022/06/03 07:55:35;;;;;;;13.25;8.43;;;;;;;;;;7328762;19;154078;-16
2022/06/03 07:58:09;;;;;;;12.02;8.07;;;;;;;;;;7329022;19;153617;-16
2022/06/03 08:00:44;;;;;;;10.48;8.27;;;;;;;;;;7328896;19;161856;-16
2022/06/03 08:03:18;;;;;;;10.80;8.65;;;;;;;;;;7328607;19;162530;-17
2022/06/03 08:05:52;;;;;;;11.38;8.65;;;;;;;;;;7329341;19;154290;-16
2022/06/03 08:11:25;;;;;;;10.82;8.73;;;;;;;;;;7328697;19;162228;-16
2022/06/03 08:13:59;;;;;;;10.15;7.75;;;;;;;;;;7327517;19;162408;-16
2022/06/03 08:16:35;;;;;;;9.18;7.70;;;;;;;;;;7327603;19;154063;-17
2022/06/03 08:19:12;;;;;;;11.23;7.50;;;;;;;;;;7327516;19;153546;-17
2022/06/03 08:21:47;;;;;;;10.05;8.35;;;;;;;;;;7328324;19;161736;-17
2022/06/03 08:24:24;;;;;;;10.45;7.35;;;;;;;;;;7328405;19;162521;-16
2022/06/03 08:27:00;;;;;;;12.02;7.82;;;;;;;;;;7328351;19;154130;-17
2022/06/03 08:29:36;;;;;;;11.98;7.32;;;;;;;;;;7328210;19;153478;-16
2022/06/03 08:32:11;;;;;;;11.10;7.70;;;;;;;;;;7327695;19;161842;-16
2022/06/03 08:34:48;;;;;;;10.45;8.05;;;;;;;;;;7327392;19;162595;-16
2022/06/03 08:37:24;;;;;;;10.48;7.47;;;;;;;;;;7328015;19;154080;-16
2022/06/03 08:40:01;;;;;;;10.48;7.78;;;;;;;;;;7326119;19;153735;-16
2022/06/03 08:42:40;;;;;;;8.63;7.70;;;;;;;;;;7327300;19;162293;-17
2022/06/03 08:45:33;;;;;;;12.32;7.55;;;;;;;;;;7327114;19;162545;-16
2022/06/03 08:48:14;;;;;;;11.20;8.18;;;;;;;;;;7327668;19;154376;-17
2022/06/03 08:50:54;;;;;;;9.27;6.68;;;;;;;;;;7327499;19;153726;-17
2022/06/03 08:53:29;;;;;;;9.93;7.55;;;;;;;;;;7324971;19;161828;-17
2022/06/03 08:56:08;;;;;;;10.80;7.35;;;;;;;;;;7327224;19;162662;-16
2022/06/03 08:58:47;;;;;;;10.05;7.65;;;;;;;;;;7327271;19;154310;-17
2022/06/03 09:01:30;;;;;;;9.95;7.85;;;;;;;;;;7326974;19;153399;-17
2022/06/03 09:04:13;;;;;;;12.68;7.80;;;;;;;;;;7326665;19;162046;-17
2022/06/03 09:06:52;;;;;;;9.23;7.38;;;;;;;;;;7326511;19;162375;-17
2022/06/03 09:09:29;;;;;;;9.30;6.15;;;;;;;;;;7333708;19;154271;-18
2022/06/03 09:12:12;;;;;;;12.60;7.00;;;;;;;;;;7334214;19;153773;-18
2022/06/03 09:14:45;;;;;;;10.52;6.80;;;;;;;;;;7333672;19;162016;-17
2022/06/03 09:17:34;;;;;;;8.57;7.15;;;;;;;;;;7332566;19;162431;-18
2022/06/03 09:20:10;;;;;;;10.45;7.88;;;;;;;;;;7332771;19;154135;-17
2022/06/03 09:22:42;;;;;;;12.13;7.90;;;;;;;;;;7334138;19;153510;-17
2022/06/03 09:25:15;;;;;;;11.23;7.70;;;;;;;;;;7333458;19;161882;-18
2022/06/03 09:27:51;;;;;;;8.52;7.32;;;;;;;;;;7333516;19;162481;-17
2022/06/03 09:30:31;;;;;;;9.90;7.00;;;;;;;;;;7332485;19;154050;-17
2022/06/03 09:33:06;;;;;;;10.43;7.00;;;;;;;;;;7333406;19;153598;-18
2022/06/03 09:35:41;;;;;;;10.02;7.38;;;;;;;;;;7332947;19;161900;-18
2022/06/03 09:38:13;;;;;;;11.10;7.45;;;;;;;;;;7333218;19;162489;-17
2022/06/03 09:40:47;;;;;;;8.32;7.05;;;;;;;;;;7331812;19;154061;-26
2022/06/03 09:43:23;;;;;;;8.07;7.00;;;;;;;;;;7333201;19;153294;-16
2022/06/03 09:45:58;;;;;;;10.80;6.97;;;;;;;;;;7332844;19;161926;-16
2022/06/03 09:48:33;;;;;;;8.18;6.55;;;;;;;;;;7332331;19;162394;-16
2022/06/03 09:51:13;;;;;;;6.63;5.72;;;;;;;;;;7333095;19;153990;-16
2022/06/03 09:53:45;;;;;;;8.25;6.10;;;;;;;;;;7330299;19;153554;-16
2022/06/03 09:56:26;;;;;;;9.43;6.72;;;;;;;;;;7332245;19;162052;-16
2022/06/03 09:59:03;;;;;;;9.20;6.72;;;;;;;;;;7332440;19;162266;-16
2022/06/03 10:01:34;;;;;;;8.65;6.60;;;;;;;;;;7333375;19;154212;-16
2022/06/03 10:04:26;;;;;;;9.43;5.82;;;;;;;;;;7332954;19;153352;-17
2022/06/03 10:07:00;;;;;;;10.18;6.30;;;;;;;;;;7332499;19;162260;-16
2022/06/03 10:17:57;;;;;;;8.95;6.07;;;;;;;;;;7331873;19;162137;-16
2022/06/03 10:20:28;;;;;;;10.32;6.05;;;;;;;;;;7330656;19;162404;-16
2022/06/03 10:22:59;;;;;;;7.40;5.95;;;;;;;;;;7332151;19;154028;-16
2022/06/03 10:25:31;;;;;;;10.63;5.95;;;;;;;;;;7332218;19;153572;-16
2022/06/03 10:28:06;;;;;;;8.27;5.72;;;;;;;;;;7331859;19;161851;-16
2022/06/03 10:30:42;;;;;;;9.20;5.72;;;;;;;;;;7331937;19;162631;-16
2022/06/03 10:33:21;;;;;;;10.23;6.43;;;;;;;;;;7332167;19;154104;-16
2022/06/03 10:35:53;;;;;;;6.88;5.68;;;;;;;;;;7330387;19;153672;-17
2022/06/03 10:38:24;;;;;;;8.07;5.43;;;;;;;;;;7331471;19;161842;-17
2022/06/03 10:40:56;;;;;;;7.00;5.15;;;;;;;;;;7329772;19;162710;-17
2022/06/03 10:43:30;;;;;;;10.77;5.45;;;;;;;;;;7331451;19;154228;-16
2022/06/03 10:46:14;;;;;;;12.07;5.95;;;;;;;;;;7331517;19;153582;-17
2022/06/03 10:48:46;;;;;;;9.02;6.07;;;;;;;;;;7330899;19;162232;-17
2022/06/03 11:01:06;;;;;;;6.75;5.50;;;;;;;;;;7331311;19;162947;-16
2022/06/03 11:02:34;;;;;;;6.10;4.38;;;;;;;;;;7330581;19;162614;-17
2022/06/03 11:05:15;;;;;;;9.55;4.60;;;;;;;;;;7330987;19;154178;-17
2022/06/03 11:07:59;;;;;;;8.65;4.47;;;;;;;;;;7329808;19;153818;-17
2022/06/03 11:10:42;;;;;;;6.55;4.82;;;;;;;;;;7330530;19;162093;-17
2022/06/03 11:13:16;;;;;;;5.25;4.63;;;;;;;;;;7330006;19;162368;-17
2022/06/03 11:15:49;;;;;;;5.88;4.28;;;;;;;;;;7330424;19;154105;-17
2022/06/03 11:18:27;;;;;;;7.18;4.47;;;;;;;;;;7330679;19;153554;-18
2022/06/03 11:21:17;;;;;;;5.93;4.07;;;;;;;;;;7329048;19;161850;-17
2022/06/03 11:23:49;;;;;;;6.43;4.10;;;;;;;;;;7330178;19;162328;-16
2022/06/03 11:26:22;;;;;;;6.97;4.07;;;;;;;;;;7329252;19;154069;-17
2022/06/03 11:28:59;;;;;;;6.45;3.97;;;;;;;;;;7330291;19;153546;-16
2022/06/03 11:31:35;;;;;;;5.82;4.03;;;;;;;;;;7327863;19;161793;-16
2022/06/03 11:34:16;;;;;;;5.75;3.78;;;;;;;;;;7329817;19;162609;-18
2022/06/03 11:36:53;;;;;;;4.78;3.80;;;;;;;;;;7330246;19;154772;-18
2022/06/03 11:39:31;;;;;;;4.18;3.20;;;;;;;;;;7329974;19;153568;-16
2022/06/03 11:42:07;;;;;;;4.65;3.30;;;;;;;;;;7327708;19;162129;-16
2022/06/03 11:44:42;;;;;;;5.28;3.63;;;;;;;;;;7329535;19;162384;-16
2022/06/03 11:47:19;;;;;;;5.63;3.90;;;;;;;;;;7330051;19;154092;-17
2022/06/03 11:49:53;;;;;;;5.22;3.38;;;;;;;;;;7329889;19;153836;-17
2022/06/03 11:52:24;;;;;;;3.75;3.08;;;;;;;;;;7328171;19;161826;-17
2022/06/03 11:54:57;;;;;;;5.18;3.30;;;;;;;;;;7334072;19;162391;-17
2022/06/03 11:57:28;;;;;;;6.40;3.28;;;;;;;;;;7329249;19;154159;-17
2022/06/03 12:00:03;;;;;;;4.13;2.75;;;;;;;;;;7329161;19;153611;-16
2022/06/03 12:02:46;;;;;;;5.68;3.35;;;;;;;;;;7326697;19;162106;-17
2022/06/03 12:05:24;;;;;;;4.88;3.47;;;;;;;;;;7329169;19;162459;-17
2022/06/03 12:08:02;;;;;;;4.07;2.92;;;;;;;;;;7331892;19;154184;-17
2022/06/03 12:10:45;;;;;;;4.57;3.30;;;;;;;;;;7328017;19;153863;-17
2022/06/03 12:13:17;;;;;;;4.27;3.00;;;;;;;;;;7328803;19;162064;-17
2022/06/03 12:16:01;;;;;;;5.85;3.42;;;;;;;;;;7327827;19;162116;-16
2022/06/03 12:19:02;;;;;;;6.40;3.38;;;;;;;;;;7327970;19;154129;-16
2022/06/03 12:22:18;;;;;;;5.85;3.17;;;;;;;;;;7327891;19;153549;-17
2022/06/03 12:24:56;;;;;;;2.88;2.53;;;;;;;;;;7328339;19;162060;-16
2022/06/03 12:27:32;;;;;;;5.13;2.85;;;;;;;;;;7328136;19;162371;-18
2022/06/03 12:30:29;;;;;;;5.45;3.30;;;;;;;;;;7328662;19;154120;-18
2022/06/03 12:33:03;;;;;;;6.40;3.10;;;;;;;;;;7327247;19;153723;-18
2022/06/03 12:35:54;;;;;;;4.25;3.15;;;;;;;;;;7328141;19;161877;-17
2022/06/03 12:38:37;;;;;;;5.68;3.05;;;;;;;;;;7327422;19;162184;-18
2022/06/03 12:41:11;;;;;;;4.32;2.80;;;;;;;;;;7327537;19;154032;-17
2022/06/03 12:44:00;;;;;;;4.20;2.75;;;;;;;;;;7332628;19;153560;-17
2022/06/03 12:46:41;;;;;;;4.75;2.83;;;;;;;;;;7334676;19;162027;-17
2022/06/03 12:49:40;;;;;;;4.00;2.90;;;;;;;;;;7334225;19;162457;-15
2022/06/03 12:52:23;;;;;;;5.65;3.15;;;;;;;;;;7333615;19;154246;-18
2022/06/03 12:55:01;;;;;;;7.32;3.28;;;;;;;;;;7333400;19;153753;-16
2022/06/03 12:57:44;;;;;;;3.97;3.25;;;;;;;;;;7338908;19;162009;-18
2022/06/03 13:00:27;;;;;;;3.63;2.60;;;;;;;;;;7334112;19;162447;-16
2022/06/03 13:03:00;;;;;;;6.97;2.90;;;;;;;;;;7333074;19;154087;-17
2022/06/03 13:05:41;;;;;;;4.90;2.72;;;;;;;;;;7334597;19;153792;-18
2022/06/03 13:08:15;;;;;;;2.65;1.90;;;;;;;;;;7333964;19;161520;-17
2022/06/03 13:11:01;;;;;;;2.63;2.28;;;;;;;;;;7333949;19;162454;-17
2022/06/03 13:13:42;;;;;;;2.95;2.42;;;;;;;;;;7334013;19;154499;-18
2022/06/03 13:16:45;;;;;;;2.28;2.08;;;;;;;;;;7332590;19;153582;-17
2022/06/03 13:19:44;;;;;;;12.98;7.13;;;;;;;;;;7332285;19;162104;-18
2022/06/03 13:22:32;;;;;;;4.50;3.15;;;;;;;;;;7332582;19;162460;-17
2022/06/03 13:25:28;;;;;;;6.45;3.97;;;;;;;;;;7333611;19;154148;-17
2022/06/03 13:28:20;;;;;;;7.13;4.45;;;;;;;;;;7333687;19;153760;-17
2022/06/03 13:31:11;;;;;;;11.15;6.45;;;;;;;;;;7333767;19;161844;-18
2022/06/03 13:34:21;;;;;;;16.38;10.35;;;;;;;;;;7333107;19;162236;-17
2022/06/03 13:37:14;;;;;;;34.38;16.65;;;;;;;;;;7333295;19;153850;-18
2022/06/03 13:40:10;;;;;;;35.15;19.88;;;;;;;;;;7332950;19;153989;-19
2022/06/03 13:43:05;;;;;;;42.83;23.75;;;;;;;;;;7331926;19;162252;-18
2022/06/03 13:45:56;;;;;;;51.60;28.20;;;;;;;;;;7332396;19;162525;-17
2022/06/03 13:48:34;;;;;;;56.90;31.17;;;;;;;;;;7335947;19;154186;-18
2022/06/03 13:51:33;;;;;;;62.00;34.72;;;;;;;;;;7332919;19;153363;-17
2022/06/03 13:54:17;;;;;;;70.78;41.10;;;;;;;;;;7331226;19;161819;-19
2022/06/03 13:56:57;;;;;;;125.07;67.80;;;;;;;;;;7331235;19;162668;-18
2022/06/03 13:59:33;;;;;;;128.23;74.55;;;;;;;;;;7332818;19;154365;-16
2022/06/03 14:02:14;;;;;;;130.55;75.35;;;;;;;;;;7332490;19;153678;-17
2022/06/03 14:04:52;;;;;;;122.47;69.18;;;;;;;;;;7332299;19;162066;-17
2022/06/03 14:07:35;;;;;;;115.72;64.03;;;;;;;;;;7332030;19;162416;-16
2022/06/03 14:10:18;;;;;;;100.03;58.65;;;;;;;;;;7332462;19;154195;-16
2022/06/03 14:12:56;;;;;;;104.75;58.35;;;;;;;;;;7332307;19;153686;-17
2022/06/03 14:15:36;;;;;;;94.50;53.17;;;;;;;;;;7331439;19;161801;-17
2022/06/03 14:18:10;;;;;;;104.30;55.40;;;;;;;;;;7331713;19;162400;-16
2022/06/03 14:20:46;;;;;;;94.78;53.85;;;;;;;;;;7331890;19;154004;-17
2022/06/03 14:23:27;;;;;;;90.88;51.28;;;;;;;;;;7330288;19;153846;-17
2022/06/03 14:26:04;;;;;;;90.78;48.92;;;;;;;;;;7330393;19;161996;-17
2022/06/03 14:28:43;;;;;;;84.07;46.97;;;;;;;;;;7331538;19;162268;-17
2022/06/03 14:31:23;;;;;;;82.88;48.05;;;;;;;;;;7332238;19;153998;-17
2022/06/03 14:34:01;;;;;;;84.05;47.17;;;;;;;;;;7330816;19;153704;-16
2022/06/03 14:36:33;;;;;;;84.13;45.17;;;;;;;;;;7331649;19;161918;-17
2022/06/03 14:39:10;;;;;;;82.60;45.80;;;;;;;;;;7331739;19;162671;-17
2022/06/03 14:41:44;;;;;;;79.53;43.72;;;;;;;;;;7332048;19;154158;-16
2022/06/03 14:44:20;;;;;;;75.85;41.60;;;;;;;;;;7329758;19;153676;-16
2022/06/03 14:46:59;;;;;;;76.13;41.90;;;;;;;;;;7331450;19;161951;-16
2022/06/03 14:49:38;;;;;;;67.95;36.90;;;;;;;;;;7331114;19;162658;-17
2022/06/03 14:52:15;;;;;;;68.05;36.97;;;;;;;;;;7332504;19;153864;-16
2022/06/03 14:54:53;;;;;;;60.40;35.30;;;;;;;;;;7331399;19;153692;-17
2022/06/03 14:57:32;;;;;;;59.58;32.17;;;;;;;;;;7331036;19;162096;-18
2022/06/03 15:00:12;;;;;;;52.67;30.95;;;;;;;;;;7330964;19;162371;-17
2022/06/03 15:02:50;;;;;;;55.60;29.95;;;;;;;;;;7330895;19;154036;-17
2022/06/03 15:05:29;;;;;;;47.13;27.70;;;;;;;;;;7328752;19;153613;-17
2022/06/03 15:08:06;;;;;;;47.20;28.48;;;;;;;;;;7330606;19;161838;-16
2022/06/03 15:10:43;;;;;;;51.47;26.40;;;;;;;;;;7330511;19;162607;-16
2022/06/03 15:13:24;;;;;;;43.55;25.08;;;;;;;;;;7330751;19;154060;-16
2022/06/03 15:15:56;;;;;;;48.60;25.15;;;;;;;;;;7330551;19;153871;-16
2022/06/03 15:18:33;;;;;;;39.30;23.63;;;;;;;;;;7330393;19;161602;-16
2022/06/03 15:21:20;;;;;;;38.88;21.95;;;;;;;;;;7330675;19;162365;-17
2022/06/03 15:23:54;;;;;;;42.83;24.67;;;;;;;;;;7329235;19;154057;-17
2022/06/03 15:26:29;;;;;;;42.40;22.38;;;;;;;;;;7330427;19;153435;-17
2022/06/03 15:29:08;;;;;;;37.92;20.55;;;;;;;;;;7329868;19;161792;-17
2022/06/03 15:31:40;;;;;;;39.13;21.58;;;;;;;;;;7329900;19;162459;-17
2022/06/03 15:34:15;;;;;;;40.17;21.83;;;;;;;;;;7330129;19;153818;-17
2022/06/03 15:36:52;;;;;;;38.10;21.60;;;;;;;;;;7328899;19;153476;-17
2022/06/03 15:39:28;;;;;;;33.55;20.08;;;;;;;;;;7329850;19;161572;-17
2022/06/03 15:42:01;;;;;;;34.88;18.33;;;;;;;;;;7329659;19;162497;-16
2022/06/03 15:44:38;;;;;;;32.97;18.20;;;;;;;;;;7328296;19;154087;-16
2022/06/03 15:47:19;;;;;;;35.47;18.60;;;;;;;;;;7329709;19;153658;-17
2022/06/03 15:50:06;;;;;;;33.97;17.45;;;;;;;;;;7329621;19;161562;-17
2022/06/03 15:52:50;;;;;;;34.92;17.27;;;;;;;;;;7327753;19;162569;-16
2022/06/03 15:55:36;;;;;;;30.08;16.98;;;;;;;;;;7328340;19;154080;-17
2022/06/03 15:58:12;;;;;;;27.65;15.65;;;;;;;;;;7329583;19;153438;-17
2022/06/03 16:00:48;;;;;;;24.15;15.18;;;;;;;;;;7329164;19;161954;-17
2022/06/03 16:03:25;;;;;;;23.23;14.10;;;;;;;;;;7328529;19;162516;-16
2022/06/03 16:06:01;;;;;;;25.48;13.20;;;;;;;;;;7329301;19;154036;-17
2022/06/03 16:08:52;;;;;;;22.30;12.70;;;;;;;;;;7329050;19;153581;-17
2022/06/03 16:11:31;;;;;;;24.70;12.88;;;;;;;;;;7328427;19;161836;-17
2022/06/03 16:14:12;;;;;;;27.70;13.50;;;;;;;;;;7328311;19;162358;-17
2022/06/03 16:16:58;;;;;;;21.50;12.10;;;;;;;;;;7330804;19;154072;-18
2022/06/03 16:19:42;;;;;;;24.00;13.30;;;;;;;;;;7334193;19;153641;-18
2022/06/03 16:22:31;;;;;;;21.30;11.93;;;;;;;;;;7335170;19;161883;-18
2022/06/03 16:25:18;;;;;;;23.75;11.68;;;;;;;;;;7333986;19;162594;-17
2022/06/03 16:28:02;;;;;;;20.30;11.30;;;;;;;;;;7335673;19;154206;-18
2022/06/03 16:30:43;;;;;;;18.65;11.48;;;;;;;;;;7335460;19;154023;-17
2022/06/03 16:33:27;;;;;;;23.25;12.00;;;;;;;;;;7333946;19;161967;-18
2022/06/03 16:36:05;;;;;;;21.38;10.68;;;;;;;;;;7334948;19;162187;-18
2022/06/03 16:38:42;;;;;;;19.92;10.15;;;;;;;;;;7333750;19;154252;-17
2022/06/03 16:41:26;;;;;;;19.98;11.05;;;;;;;;;;7334129;19;153308;-17
2022/06/03 16:44:01;;;;;;;19.20;10.52;;;;;;;;;;7334490;19;161845;-18